sensor_id;sensor_type;location;lat;lon;timestamp;P1;durP1;ratioP1;P2;durP2;ratioP2
53505;SDS011;39388;50.936;6.848;2022-10-01T00:02:12;6.88;;;3.95;;
53505;SDS011;39388;50.936;6.848;2022-10-01T00:04:42;5.10;;;4.15;;
53505;SDS011;39388;50.936;6.848;2022-10-01T00:07:12;4.97;;;4.50;;
53505;SDS011;39388;50.936;6.848;2022-10-01T00:09:44;4.43;;;4.03;;
53505;SDS011;39388;50.936;6.848;2022-10-01T00:12:15;4.55;;;4.15;;
53505;SDS011;39388;50.936;6.848;2022-10-01T00:14:45;4.22;;;3.70;;
53505;SDS011;39388;50.936;6.848;2022-10-01T00:17:16;5.55;;;4.35;;
53505;SDS011;39388;50.936;6.848;2022-10-01T00:19:46;5.03;;;4.25;;
53505;SDS011;39388;50.936;6.848;2022-10-01T00:22:16;5.28;;;4.25;;
53505;SDS011;39388;50.936;6.848;2022-10-01T00:24:48;4.95;;;4.45;;
53505;SDS011;39388;50.936;6.848;2022-10-01T00:27:18;5.38;;;4.18;;
53505;SDS011;39388;50.936;6.848;2022-10-01T00:29:48;5.05;;;4.32;;
53505;SDS011;39388;50.936;6.848;2022-10-01T00:32:19;8.13;;;4.00;;
53505;SDS011;39388;50.936;6.848;2022-10-01T00:34:50;4.38;;;3.58;;
53505;SDS011;39388;50.936;6.848;2022-10-01T00:37:21;5.47;;;4.45;;
53505;SDS011;39388;50.936;6.848;2022-10-01T00:39:51;4.82;;;4.20;;
53505;SDS011;39388;50.936;6.848;2022-10-01T00:42:23;5.00;;;4.50;;
53505;SDS011;39388;50.936;6.848;2022-10-01T00:44:55;4.72;;;4.15;;
53505;SDS011;39388;50.936;6.848;2022-10-01T00:50:14;5.20;;;4.60;;
53505;SDS011;39388;50.936;6.848;2022-10-01T00:52:58;5.82;;;4.55;;
53505;SDS011;39388;50.936;6.848;2022-10-01T00:55:33;6.47;;;4.40;;
53505;SDS011;39388;50.936;6.848;2022-10-01T00:58:07;5.68;;;4.63;;
53505;SDS011;39388;50.936;6.848;2022-10-01T01:00:41;6.50;;;5.30;;
53505;SDS011;39388;50.936;6.848;2022-10-01T01:03:12;7.85;;;5.65;;
53505;SDS011;39388;50.936;6.848;2022-10-01T01:05:43;8.27;;;6.63;;
53505;SDS011;39388;50.936;6.848;2022-10-01T01:08:15;9.30;;;5.60;;
53505;SDS011;39388;50.936;6.848;2022-10-01T01:11:48;6.28;;;5.20;;
53505;SDS011;39388;50.936;6.848;2022-10-01T01:14:12;4.90;;;4.13;;
53505;SDS011;39388;50.936;6.848;2022-10-01T01:16:54;5.30;;;4.80;;
53505;SDS011;39388;50.936;6.848;2022-10-01T01:22:21;5.60;;;5.07;;
53505;SDS011;39388;50.936;6.848;2022-10-01T01:25:07;5.85;;;4.90;;
53505;SDS011;39388;50.936;6.848;2022-10-01T01:28:02;5.30;;;4.80;;
53505;SDS011;39388;50.936;6.848;2022-10-01T01:30:43;5.95;;;4.10;;
53505;SDS011;39388;50.936;6.848;2022-10-01T01:33:19;5.68;;;4.25;;
53505;SDS011;39388;50.936;6.848;2022-10-01T01:36:01;4.03;;;3.70;;
53505;SDS011;39388;50.936;6.848;2022-10-01T01:38:35;6.50;;;4.22;;
53505;SDS011;39388;50.936;6.848;2022-10-01T01:41:12;6.90;;;4.43;;
53505;SDS011;39388;50.936;6.848;2022-10-01T01:43:44;5.68;;;4.47;;
53505;SDS011;39388;50.936;6.848;2022-10-01T01:46:21;4.97;;;4.22;;
53505;SDS011;39388;50.936;6.848;2022-10-01T01:49:01;6.45;;;4.07;;
53505;SDS011;39388;50.936;6.848;2022-10-01T01:54:28;5.15;;;4.45;;
53505;SDS011;39388;50.936;6.848;2022-10-01T01:56:59;4.97;;;4.05;;
53505;SDS011;39388;50.936;6.848;2022-10-01T01:59:30;5.53;;;4.00;;
53505;SDS011;39388;50.936;6.848;2022-10-01T02:02:02;4.82;;;4.25;;
53505;SDS011;39388;50.936;6.848;2022-10-01T02:04:38;5.18;;;4.10;;
53505;SDS011;39388;50.936;6.848;2022-10-01T02:15:40;5.07;;;4.25;;
53505;SDS011;39388;50.936;6.848;2022-10-01T02:18:50;6.00;;;4.07;;
53505;SDS011;39388;50.936;6.848;2022-10-01T02:22:09;4.50;;;4.10;;
53505;SDS011;39388;50.936;6.848;2022-10-01T02:27:27;4.50;;;4.10;;
53505;SDS011;39388;50.936;6.848;2022-10-01T02:30:03;5.60;;;4.25;;
53505;SDS011;39388;50.936;6.848;2022-10-01T02:32:37;4.75;;;3.97;;
53505;SDS011;39388;50.936;6.848;2022-10-01T02:35:10;4.82;;;3.75;;
53505;SDS011;39388;50.936;6.848;2022-10-01T02:37:45;6.07;;;3.80;;
53505;SDS011;39388;50.936;6.848;2022-10-01T02:40:20;4.65;;;3.92;;
53505;SDS011;39388;50.936;6.848;2022-10-01T02:42:56;5.45;;;3.65;;
53505;SDS011;39388;50.936;6.848;2022-10-01T02:45:31;3.60;;;3.30;;
53505;SDS011;39388;50.936;6.848;2022-10-01T02:48:07;3.78;;;3.33;;
53505;SDS011;39388;50.936;6.848;2022-10-01T02:50:45;3.60;;;3.30;;
53505;SDS011;39388;50.936;6.848;2022-10-01T02:53:21;3.85;;;3.50;;
53505;SDS011;39388;50.936;6.848;2022-10-01T02:55:59;4.25;;;3.15;;
53505;SDS011;39388;50.936;6.848;2022-10-01T02:58:32;5.25;;;3.47;;
53505;SDS011;39388;50.936;6.848;2022-10-01T03:01:02;4.13;;;3.22;;
53505;SDS011;39388;50.936;6.848;2022-10-01T03:03:33;4.10;;;3.13;;
53505;SDS011;39388;50.936;6.848;2022-10-01T03:06:03;3.80;;;3.50;;
53505;SDS011;39388;50.936;6.848;2022-10-01T03:08:33;5.32;;;3.70;;
53505;SDS011;39388;50.936;6.848;2022-10-01T03:11:04;4.38;;;3.63;;
53505;SDS011;39388;50.936;6.848;2022-10-01T03:13:37;5.20;;;3.78;;
53505;SDS011;39388;50.936;6.848;2022-10-01T03:16:07;7.30;;;4.28;;
53505;SDS011;39388;50.936;6.848;2022-10-01T03:18:38;5.43;;;4.10;;
53505;SDS011;39388;50.936;6.848;2022-10-01T03:21:08;4.45;;;3.97;;
53505;SDS011;39388;50.936;6.848;2022-10-01T03:23:38;4.35;;;3.95;;
53505;SDS011;39388;50.936;6.848;2022-10-01T03:26:09;4.68;;;3.70;;
53505;SDS011;39388;50.936;6.848;2022-10-01T03:28:39;6.32;;;3.97;;
53505;SDS011;39388;50.936;6.848;2022-10-01T03:31:10;4.57;;;4.10;;
53505;SDS011;39388;50.936;6.848;2022-10-01T03:33:40;4.82;;;3.60;;
53505;SDS011;39388;50.936;6.848;2022-10-01T03:36:11;3.20;;;2.90;;
53505;SDS011;39388;50.936;6.848;2022-10-01T03:38:41;3.78;;;3.22;;
53505;SDS011;39388;50.936;6.848;2022-10-01T03:41:11;3.08;;;2.70;;
53505;SDS011;39388;50.936;6.848;2022-10-01T03:43:42;4.20;;;3.10;;
53505;SDS011;39388;50.936;6.848;2022-10-01T03:46:12;3.53;;;2.92;;
53505;SDS011;39388;50.936;6.848;2022-10-01T03:48:42;3.65;;;3.00;;
53505;SDS011;39388;50.936;6.848;2022-10-01T03:51:13;3.33;;;2.75;;
53505;SDS011;39388;50.936;6.848;2022-10-01T03:53:43;3.10;;;2.80;;
53505;SDS011;39388;50.936;6.848;2022-10-01T03:56:14;3.05;;;2.53;;
53505;SDS011;39388;50.936;6.848;2022-10-01T03:58:45;3.28;;;2.30;;
53505;SDS011;39388;50.936;6.848;2022-10-01T04:01:16;2.90;;;1.98;;
53505;SDS011;39388;50.936;6.848;2022-10-01T04:03:46;2.33;;;2.05;;
53505;SDS011;39388;50.936;6.848;2022-10-01T04:06:19;2.83;;;1.90;;
53505;SDS011;39388;50.936;6.848;2022-10-01T04:08:49;1.65;;;1.40;;
53505;SDS011;39388;50.936;6.848;2022-10-01T04:11:19;1.63;;;1.52;;
53505;SDS011;39388;50.936;6.848;2022-10-01T04:13:50;2.58;;;1.48;;
53505;SDS011;39388;50.936;6.848;2022-10-01T04:16:21;2.38;;;1.38;;
53505;SDS011;39388;50.936;6.848;2022-10-01T04:18:51;2.38;;;1.23;;
53505;SDS011;39388;50.936;6.848;2022-10-01T04:21:22;1.30;;;1.20;;
53505;SDS011;39388;50.936;6.848;2022-10-01T04:23:52;1.20;;;1.10;;
53505;SDS011;39388;50.936;6.848;2022-10-01T04:26:23;1.38;;;1.27;;
53505;SDS011;39388;50.936;6.848;2022-10-01T04:28:54;1.63;;;1.15;;
53505;SDS011;39388;50.936;6.848;2022-10-01T04:31:24;2.95;;;1.40;;
53505;SDS011;39388;50.936;6.848;2022-10-01T04:33:55;1.02;;;1.00;;
53505;SDS011;39388;50.936;6.848;2022-10-01T04:36:26;1.05;;;0.95;;
53505;SDS011;39388;50.936;6.848;2022-10-01T04:38:57;0.82;;;0.82;;
53505;SDS011;39388;50.936;6.848;2022-10-01T04:41:27;2.08;;;0.90;;
53505;SDS011;39388;50.936;6.848;2022-10-01T04:43:59;1.58;;;1.17;;
53505;SDS011;39388;50.936;6.848;2022-10-01T04:46:30;0.90;;;0.90;;
53505;SDS011;39388;50.936;6.848;2022-10-01T04:49:00;1.27;;;1.05;;
53505;SDS011;39388;50.936;6.848;2022-10-01T04:51:30;1.15;;;1.00;;
53505;SDS011;39388;50.936;6.848;2022-10-01T04:54:01;1.48;;;1.00;;
53505;SDS011;39388;50.936;6.848;2022-10-01T04:56:31;0.85;;;0.85;;
53505;SDS011;39388;50.936;6.848;2022-10-01T04:59:02;0.93;;;0.93;;
53505;SDS011;39388;50.936;6.848;2022-10-01T05:01:32;0.80;;;0.80;;
53505;SDS011;39388;50.936;6.848;2022-10-01T05:04:02;0.75;;;0.75;;
53505;SDS011;39388;50.936;6.848;2022-10-01T05:06:33;0.90;;;0.90;;
53505;SDS011;39388;50.936;6.848;2022-10-01T05:09:03;0.73;;;0.73;;
53505;SDS011;39388;50.936;6.848;2022-10-01T05:11:34;0.82;;;0.82;;
53505;SDS011;39388;50.936;6.848;2022-10-01T05:14:04;0.90;;;0.90;;
53505;SDS011;39388;50.936;6.848;2022-10-01T05:16:35;0.70;;;0.70;;
53505;SDS011;39388;50.936;6.848;2022-10-01T05:19:05;0.70;;;0.70;;
53505;SDS011;39388;50.936;6.848;2022-10-01T05:21:36;0.73;;;0.73;;
53505;SDS011;39388;50.936;6.848;2022-10-01T05:24:06;0.85;;;0.85;;
53505;SDS011;39388;50.936;6.848;2022-10-01T05:26:37;1.05;;;1.05;;
53505;SDS011;39388;50.936;6.848;2022-10-01T05:29:07;0.88;;;0.88;;
53505;SDS011;39388;50.936;6.848;2022-10-01T05:31:38;0.70;;;0.70;;
53505;SDS011;39388;50.936;6.848;2022-10-01T05:34:13;1.00;;;0.80;;
53505;SDS011;39388;50.936;6.848;2022-10-01T05:36:43;0.70;;;0.70;;
53505;SDS011;39388;50.936;6.848;2022-10-01T05:39:13;0.82;;;0.80;;
53505;SDS011;39388;50.936;6.848;2022-10-01T05:41:44;2.67;;;0.80;;
53505;SDS011;39388;50.936;6.848;2022-10-01T05:44:14;1.00;;;0.88;;
53505;SDS011;39388;50.936;6.848;2022-10-01T05:46:44;0.80;;;0.80;;
53505;SDS011;39388;50.936;6.848;2022-10-01T05:49:15;0.77;;;0.77;;
53505;SDS011;39388;50.936;6.848;2022-10-01T05:51:46;0.80;;;0.70;;
53505;SDS011;39388;50.936;6.848;2022-10-01T05:54:17;0.70;;;0.70;;
53505;SDS011;39388;50.936;6.848;2022-10-01T05:56:48;0.82;;;0.82;;
53505;SDS011;39388;50.936;6.848;2022-10-01T05:59:19;0.70;;;0.70;;
53505;SDS011;39388;50.936;6.848;2022-10-01T06:01:49;0.70;;;0.68;;
53505;SDS011;39388;50.936;6.848;2022-10-01T06:04:20;0.70;;;0.70;;
53505;SDS011;39388;50.936;6.848;2022-10-01T06:06:51;0.93;;;0.70;;
53505;SDS011;39388;50.936;6.848;2022-10-01T06:09:22;0.70;;;0.70;;
53505;SDS011;39388;50.936;6.848;2022-10-01T06:11:52;0.80;;;0.80;;
53505;SDS011;39388;50.936;6.848;2022-10-01T06:14:23;1.00;;;0.80;;
53505;SDS011;39388;50.936;6.848;2022-10-01T06:16:53;0.60;;;0.60;;
53505;SDS011;39388;50.936;6.848;2022-10-01T06:19:24;1.27;;;1.17;;
53505;SDS011;39388;50.936;6.848;2022-10-01T06:21:54;1.10;;;0.70;;
53505;SDS011;39388;50.936;6.848;2022-10-01T06:24:24;0.70;;;0.70;;
53505;SDS011;39388;50.936;6.848;2022-10-01T06:26:55;0.70;;;0.70;;
53505;SDS011;39388;50.936;6.848;2022-10-01T06:29:26;0.60;;;0.60;;
53505;SDS011;39388;50.936;6.848;2022-10-01T06:31:56;1.02;;;0.70;;
53505;SDS011;39388;50.936;6.848;2022-10-01T06:34:27;0.82;;;0.60;;
53505;SDS011;39388;50.936;6.848;2022-10-01T06:36:57;0.70;;;0.70;;
53505;SDS011;39388;50.936;6.848;2022-10-01T06:39:28;0.70;;;0.70;;
53505;SDS011;39388;50.936;6.848;2022-10-01T06:41:58;0.70;;;0.70;;
53505;SDS011;39388;50.936;6.848;2022-10-01T06:44:28;0.80;;;0.80;;
53505;SDS011;39388;50.936;6.848;2022-10-01T06:46:59;2.50;;;0.95;;
53505;SDS011;39388;50.936;6.848;2022-10-01T06:49:29;0.80;;;0.80;;
53505;SDS011;39388;50.936;6.848;2022-10-01T06:51:59;0.70;;;0.70;;
53505;SDS011;39388;50.936;6.848;2022-10-01T06:54:49;2.42;;;1.00;;
53505;SDS011;39388;50.936;6.848;2022-10-01T06:57:19;0.80;;;0.80;;
53505;SDS011;39388;50.936;6.848;2022-10-01T06:59:50;0.80;;;0.80;;
53505;SDS011;39388;50.936;6.848;2022-10-01T07:02:22;1.48;;;0.88;;
53505;SDS011;39388;50.936;6.848;2022-10-01T07:04:57;0.80;;;0.80;;
53505;SDS011;39388;50.936;6.848;2022-10-01T07:07:31;2.10;;;0.95;;
53505;SDS011;39388;50.936;6.848;2022-10-01T07:10:05;0.90;;;0.90;;
53505;SDS011;39388;50.936;6.848;2022-10-01T07:12:37;1.08;;;0.73;;
53505;SDS011;39388;50.936;6.848;2022-10-01T07:15:08;0.73;;;0.65;;
53505;SDS011;39388;50.936;6.848;2022-10-01T07:17:45;1.40;;;0.80;;
53505;SDS011;39388;50.936;6.848;2022-10-01T07:20:18;0.80;;;0.80;;
53505;SDS011;39388;50.936;6.848;2022-10-01T07:22:54;0.70;;;0.70;;
53505;SDS011;39388;50.936;6.848;2022-10-01T07:25:26;1.17;;;0.88;;
53505;SDS011;39388;50.936;6.848;2022-10-01T07:27:59;0.73;;;0.73;;
53505;SDS011;39388;50.936;6.848;2022-10-01T07:30:33;0.70;;;0.70;;
53505;SDS011;39388;50.936;6.848;2022-10-01T07:33:04;1.10;;;0.70;;
53505;SDS011;39388;50.936;6.848;2022-10-01T07:35:35;1.17;;;1.00;;
53505;SDS011;39388;50.936;6.848;2022-10-01T07:38:07;1.27;;;1.17;;
53505;SDS011;39388;50.936;6.848;2022-10-01T07:40:37;0.80;;;0.80;;
53505;SDS011;39388;50.936;6.848;2022-10-01T07:43:08;0.80;;;0.80;;
53505;SDS011;39388;50.936;6.848;2022-10-01T07:45:38;0.70;;;0.70;;
53505;SDS011;39388;50.936;6.848;2022-10-01T07:48:09;1.50;;;0.82;;
53505;SDS011;39388;50.936;6.848;2022-10-01T07:50:41;0.70;;;0.70;;
53505;SDS011;39388;50.936;6.848;2022-10-01T07:53:12;1.52;;;1.10;;
53505;SDS011;39388;50.936;6.848;2022-10-01T07:55:43;1.73;;;1.00;;
53505;SDS011;39388;50.936;6.848;2022-10-01T07:58:13;1.00;;;0.95;;
53505;SDS011;39388;50.936;6.848;2022-10-01T08:00:44;2.08;;;1.30;;
53505;SDS011;39388;50.936;6.848;2022-10-01T08:03:14;2.33;;;1.58;;
53505;SDS011;39388;50.936;6.848;2022-10-01T08:05:44;2.38;;;1.30;;
53505;SDS011;39388;50.936;6.848;2022-10-01T08:08:16;2.22;;;1.50;;
53505;SDS011;39388;50.936;6.848;2022-10-01T08:10:47;1.58;;;1.40;;
53505;SDS011;39388;50.936;6.848;2022-10-01T08:13:19;3.07;;;1.40;;
53505;SDS011;39388;50.936;6.848;2022-10-01T08:15:53;2.33;;;1.50;;
53505;SDS011;39388;50.936;6.848;2022-10-01T08:18:24;1.17;;;0.93;;
53505;SDS011;39388;50.936;6.848;2022-10-01T08:20:54;2.30;;;1.05;;
53505;SDS011;39388;50.936;6.848;2022-10-01T08:23:24;2.75;;;1.40;;
53505;SDS011;39388;50.936;6.848;2022-10-01T08:25:59;1.10;;;1.00;;
53505;SDS011;39388;50.936;6.848;2022-10-01T08:28:30;1.27;;;1.10;;
53505;SDS011;39388;50.936;6.848;2022-10-01T08:31:07;1.63;;;1.00;;
53505;SDS011;39388;50.936;6.848;2022-10-01T08:33:38;1.52;;;1.35;;
53505;SDS011;39388;50.936;6.848;2022-10-01T08:36:09;1.83;;;1.40;;
53505;SDS011;39388;50.936;6.848;2022-10-01T08:38:40;2.50;;;1.50;;
53505;SDS011;39388;50.936;6.848;2022-10-01T08:43:52;0.90;;;0.90;;
53505;SDS011;39388;50.936;6.848;2022-10-01T08:46:23;1.23;;;1.00;;
53505;SDS011;39388;50.936;6.848;2022-10-01T08:52:04;3.85;;;1.20;;
53505;SDS011;39388;50.936;6.848;2022-10-01T08:54:44;1.20;;;1.00;;
53505;SDS011;39388;50.936;6.848;2022-10-01T08:57:21;1.75;;;1.00;;
53505;SDS011;39388;50.936;6.848;2022-10-01T08:59:58;1.75;;;0.90;;
53505;SDS011;39388;50.936;6.848;2022-10-01T09:02:48;1.80;;;1.00;;
53505;SDS011;39388;50.936;6.848;2022-10-01T09:05:24;3.13;;;1.15;;
53505;SDS011;39388;50.936;6.848;2022-10-01T09:16:43;1.98;;;1.30;;
53505;SDS011;39388;50.936;6.848;2022-10-01T09:22:38;2.42;;;1.27;;
53505;SDS011;39388;50.936;6.848;2022-10-01T09:27:59;3.15;;;1.20;;
53505;SDS011;39388;50.936;6.848;2022-10-01T09:30:36;3.05;;;1.15;;
53505;SDS011;39388;50.936;6.848;2022-10-01T09:33:16;1.50;;;1.40;;
53505;SDS011;39388;50.936;6.848;2022-10-01T09:39:04;1.33;;;1.10;;
53505;SDS011;39388;50.936;6.848;2022-10-01T09:41:40;2.50;;;1.52;;
53505;SDS011;39388;50.936;6.848;2022-10-01T09:47:08;1.98;;;1.50;;
53505;SDS011;39388;50.936;6.848;2022-10-01T09:54:58;2.33;;;1.70;;
53505;SDS011;39388;50.936;6.848;2022-10-01T09:57:33;3.72;;;1.90;;
53505;SDS011;39388;50.936;6.848;2022-10-01T10:00:15;3.35;;;1.67;;
53505;SDS011;39388;50.936;6.848;2022-10-01T10:02:48;4.15;;;1.67;;
53505;SDS011;39388;50.936;6.848;2022-10-01T10:08:01;4.22;;;2.00;;
53505;SDS011;39388;50.936;6.848;2022-10-01T10:10:34;3.40;;;2.00;;
53505;SDS011;39388;50.936;6.848;2022-10-01T10:15:42;3.72;;;1.85;;
53505;SDS011;39388;50.936;6.848;2022-10-01T10:18:23;2.22;;;1.63;;
53505;SDS011;39388;50.936;6.848;2022-10-01T10:21:00;3.03;;;1.88;;
53505;SDS011;39388;50.936;6.848;2022-10-01T10:23:32;4.28;;;1.85;;
53505;SDS011;39388;50.936;6.848;2022-10-01T10:26:04;4.25;;;1.90;;
53505;SDS011;39388;50.936;6.848;2022-10-01T10:31:13;4.30;;;2.00;;
53505;SDS011;39388;50.936;6.848;2022-10-01T10:34:34;2.85;;;1.80;;
53505;SDS011;39388;50.936;6.848;2022-10-01T10:36:56;3.60;;;2.00;;
53505;SDS011;39388;50.936;6.848;2022-10-01T10:39:29;5.28;;;2.42;;
53505;SDS011;39388;50.936;6.848;2022-10-01T10:42:03;3.67;;;2.17;;
53505;SDS011;39388;50.936;6.848;2022-10-01T10:44:35;4.55;;;1.70;;
53505;SDS011;39388;50.936;6.848;2022-10-01T10:47:09;4.30;;;1.90;;
53505;SDS011;39388;50.936;6.848;2022-10-01T10:49:50;5.25;;;1.60;;
53505;SDS011;39388;50.936;6.848;2022-10-01T10:52:36;4.10;;;1.90;;
53505;SDS011;39388;50.936;6.848;2022-10-01T10:57:52;4.13;;;1.90;;
53505;SDS011;39388;50.936;6.848;2022-10-01T11:00:23;4.28;;;1.90;;
53505;SDS011;39388;50.936;6.848;2022-10-01T11:02:58;3.42;;;1.80;;
53505;SDS011;39388;50.936;6.848;2022-10-01T11:05:38;6.55;;;2.17;;
53505;SDS011;39388;50.936;6.848;2022-10-01T11:08:12;5.25;;;2.25;;
53505;SDS011;39388;50.936;6.848;2022-10-01T11:13:57;5.82;;;1.60;;
53505;SDS011;39388;50.936;6.848;2022-10-01T11:16:49;4.38;;;2.15;;
53505;SDS011;39388;50.936;6.848;2022-10-01T11:25:30;4.93;;;1.70;;
53505;SDS011;39388;50.936;6.848;2022-10-01T11:28:14;5.55;;;2.45;;
53505;SDS011;39388;50.936;6.848;2022-10-01T11:30:54;6.15;;;2.25;;
53505;SDS011;39388;50.936;6.848;2022-10-01T11:49:43;5.50;;;2.13;;
53505;SDS011;39388;50.936;6.848;2022-10-01T11:52:28;3.70;;;2.03;;
53505;SDS011;39388;50.936;6.848;2022-10-01T11:58:02;3.55;;;1.80;;
53505;SDS011;39388;50.936;6.848;2022-10-01T12:01:00;5.85;;;1.85;;
53505;SDS011;39388;50.936;6.848;2022-10-01T12:03:41;3.90;;;2.10;;
53505;SDS011;39388;50.936;6.848;2022-10-01T12:09:11;4.80;;;2.13;;
53505;SDS011;39388;50.936;6.848;2022-10-01T12:11:50;4.90;;;2.45;;
53505;SDS011;39388;50.936;6.848;2022-10-01T12:14:26;7.05;;;2.50;;
53505;SDS011;39388;50.936;6.848;2022-10-01T12:17:07;5.47;;;2.50;;
53505;SDS011;39388;50.936;6.848;2022-10-01T12:19:45;7.40;;;2.60;;
53505;SDS011;39388;50.936;6.848;2022-10-01T12:22:23;7.03;;;2.65;;
53505;SDS011;39388;50.936;6.848;2022-10-01T12:24:57;4.38;;;1.90;;
53505;SDS011;39388;50.936;6.848;2022-10-01T12:35:23;5.00;;;1.85;;
53505;SDS011;39388;50.936;6.848;2022-10-01T12:41:01;4.28;;;1.75;;
53505;SDS011;39388;50.936;6.848;2022-10-01T13:00:11;5.47;;;2.42;;
53505;SDS011;39388;50.936;6.848;2022-10-01T13:02:53;4.78;;;2.00;;
53505;SDS011;39388;50.936;6.848;2022-10-01T13:13:29;5.57;;;2.60;;
53505;SDS011;39388;50.936;6.848;2022-10-01T13:16:18;13.65;;;5.88;;
53505;SDS011;39388;50.936;6.848;2022-10-01T13:27:33;5.70;;;2.60;;
53505;SDS011;39388;50.936;6.848;2022-10-01T13:30:54;5.82;;;3.33;;
53505;SDS011;39388;50.936;6.848;2022-10-01T13:36:05;9.48;;;3.92;;
53505;SDS011;39388;50.936;6.848;2022-10-01T13:41:31;8.48;;;2.58;;
53505;SDS011;39388;50.936;6.848;2022-10-01T13:46:48;3.60;;;2.03;;
53505;SDS011;39388;50.936;6.848;2022-10-01T13:49:35;4.07;;;1.83;;
53505;SDS011;39388;50.936;6.848;2022-10-01T13:52:07;6.95;;;2.97;;
53505;SDS011;39388;50.936;6.848;2022-10-01T13:54:49;4.28;;;1.90;;
53505;SDS011;39388;50.936;6.848;2022-10-01T14:02:41;5.78;;;2.58;;
53505;SDS011;39388;50.936;6.848;2022-10-01T14:05:19;6.07;;;2.90;;
53505;SDS011;39388;50.936;6.848;2022-10-01T14:07:58;5.47;;;2.42;;
53505;SDS011;39388;50.936;6.848;2022-10-01T14:10:50;4.43;;;2.25;;
53505;SDS011;39388;50.936;6.848;2022-10-01T14:13:47;5.50;;;2.50;;
53505;SDS011;39388;50.936;6.848;2022-10-01T14:16:39;6.40;;;2.28;;
53505;SDS011;39388;50.936;6.848;2022-10-01T14:19:16;5.13;;;2.03;;
53505;SDS011;39388;50.936;6.848;2022-10-01T14:22:04;5.88;;;2.97;;
53505;SDS011;39388;50.936;6.848;2022-10-01T14:30:13;4.82;;;2.20;;
53505;SDS011;39388;50.936;6.848;2022-10-01T14:35:55;6.13;;;2.60;;
53505;SDS011;39388;50.936;6.848;2022-10-01T14:38:35;5.35;;;2.40;;
53505;SDS011;39388;50.936;6.848;2022-10-01T14:41:13;7.72;;;2.58;;
53505;SDS011;39388;50.936;6.848;2022-10-01T14:43:48;5.20;;;2.45;;
53505;SDS011;39388;50.936;6.848;2022-10-01T14:46:19;7.82;;;2.50;;
53505;SDS011;39388;50.936;6.848;2022-10-01T14:48:56;4.18;;;2.22;;
53505;SDS011;39388;50.936;6.848;2022-10-01T14:51:29;5.25;;;2.15;;
53505;SDS011;39388;50.936;6.848;2022-10-01T14:54:00;7.15;;;2.70;;
53505;SDS011;39388;50.936;6.848;2022-10-01T14:56:30;5.80;;;2.53;;
53505;SDS011;39388;50.936;6.848;2022-10-01T14:59:01;7.90;;;2.80;;
53505;SDS011;39388;50.936;6.848;2022-10-01T15:01:34;5.72;;;2.58;;
53505;SDS011;39388;50.936;6.848;2022-10-01T15:04:12;5.35;;;2.85;;
53505;SDS011;39388;50.936;6.848;2022-10-01T15:06:44;6.03;;;2.40;;
53505;SDS011;39388;50.936;6.848;2022-10-01T15:09:14;5.80;;;2.35;;
53505;SDS011;39388;50.936;6.848;2022-10-01T15:11:48;3.95;;;2.67;;
53505;SDS011;39388;50.936;6.848;2022-10-01T15:14:20;5.05;;;2.28;;
53505;SDS011;39388;50.936;6.848;2022-10-01T15:16:53;4.43;;;1.90;;
53505;SDS011;39388;50.936;6.848;2022-10-01T15:19:23;5.78;;;1.92;;
53505;SDS011;39388;50.936;6.848;2022-10-01T15:21:57;4.95;;;2.20;;
53505;SDS011;39388;50.936;6.848;2022-10-01T15:24:43;2.88;;;1.33;;
53505;SDS011;39388;50.936;6.848;2022-10-01T15:27:16;8.98;;;2.05;;
53505;SDS011;39388;50.936;6.848;2022-10-01T15:29:50;5.30;;;1.55;;
53505;SDS011;39388;50.936;6.848;2022-10-01T15:32:24;6.10;;;1.98;;
53505;SDS011;39388;50.936;6.848;2022-10-01T15:34:58;3.45;;;1.42;;
53505;SDS011;39388;50.936;6.848;2022-10-01T15:37:36;3.92;;;1.90;;
53505;SDS011;39388;50.936;6.848;2022-10-01T15:40:19;5.03;;;1.80;;
53505;SDS011;39388;50.936;6.848;2022-10-01T15:45:37;6.55;;;1.40;;
53505;SDS011;39388;50.936;6.848;2022-10-01T15:48:27;3.85;;;1.65;;
53505;SDS011;39388;50.936;6.848;2022-10-01T15:51:02;8.30;;;1.85;;
53505;SDS011;39388;50.936;6.848;2022-10-01T15:54:00;5.78;;;1.85;;
53505;SDS011;39388;50.936;6.848;2022-10-01T15:56:35;4.25;;;1.80;;
53505;SDS011;39388;50.936;6.848;2022-10-01T15:59:10;6.70;;;2.40;;
53505;SDS011;39388;50.936;6.848;2022-10-01T16:01:45;5.38;;;1.88;;
53505;SDS011;39388;50.936;6.848;2022-10-01T16:04:15;5.13;;;1.83;;
53505;SDS011;39388;50.936;6.848;2022-10-01T16:06:46;7.25;;;2.17;;
53505;SDS011;39388;50.936;6.848;2022-10-01T16:09:24;6.00;;;2.22;;
53505;SDS011;39388;50.936;6.848;2022-10-01T16:14:42;5.50;;;2.10;;
53505;SDS011;39388;50.936;6.848;2022-10-01T16:22:44;6.18;;;1.60;;
53505;SDS011;39388;50.936;6.848;2022-10-01T16:28:00;7.88;;;2.20;;
53505;SDS011;39388;50.936;6.848;2022-10-01T16:30:33;4.93;;;1.95;;
53505;SDS011;39388;50.936;6.848;2022-10-01T16:33:03;6.95;;;2.08;;
53505;SDS011;39388;50.936;6.848;2022-10-01T16:35:35;4.75;;;1.88;;
53505;SDS011;39388;50.936;6.848;2022-10-01T16:38:07;5.68;;;2.00;;
53505;SDS011;39388;50.936;6.848;2022-10-01T16:40:39;5.03;;;1.97;;
53505;SDS011;39388;50.936;6.848;2022-10-01T16:43:15;5.25;;;2.28;;
53505;SDS011;39388;50.936;6.848;2022-10-01T16:45:48;4.65;;;2.00;;
53505;SDS011;39388;50.936;6.848;2022-10-01T16:48:19;4.68;;;2.42;;
53505;SDS011;39388;50.936;6.848;2022-10-01T16:50:53;5.47;;;2.53;;
53505;SDS011;39388;50.936;6.848;2022-10-01T16:53:27;7.03;;;3.25;;
53505;SDS011;39388;50.936;6.848;2022-10-01T16:55:58;5.03;;;2.50;;
53505;SDS011;39388;50.936;6.848;2022-10-01T16:58:28;6.05;;;2.28;;
53505;SDS011;39388;50.936;6.848;2022-10-01T17:00:59;6.38;;;2.33;;
53505;SDS011;39388;50.936;6.848;2022-10-01T17:03:35;4.57;;;1.85;;
53505;SDS011;39388;50.936;6.848;2022-10-01T17:06:06;5.68;;;2.15;;
53505;SDS011;39388;50.936;6.848;2022-10-01T17:08:36;6.13;;;2.33;;
53505;SDS011;39388;50.936;6.848;2022-10-01T17:11:08;5.00;;;1.98;;
53505;SDS011;39388;50.936;6.848;2022-10-01T17:13:40;8.15;;;2.35;;
53505;SDS011;39388;50.936;6.848;2022-10-01T17:16:11;7.55;;;2.28;;
53505;SDS011;39388;50.936;6.848;2022-10-01T17:18:41;5.85;;;2.20;;
53505;SDS011;39388;50.936;6.848;2022-10-01T17:21:12;8.88;;;1.85;;
53505;SDS011;39388;50.936;6.848;2022-10-01T17:23:43;6.45;;;2.50;;
53505;SDS011;39388;50.936;6.848;2022-10-01T17:26:13;9.68;;;2.25;;
53505;SDS011;39388;50.936;6.848;2022-10-01T17:28:43;11.55;;;2.17;;
53505;SDS011;39388;50.936;6.848;2022-10-01T17:31:14;6.53;;;2.25;;
53505;SDS011;39388;50.936;6.848;2022-10-01T17:33:45;9.07;;;2.55;;
53505;SDS011;39388;50.936;6.848;2022-10-01T17:36:15;7.35;;;2.08;;
53505;SDS011;39388;50.936;6.848;2022-10-01T17:38:46;7.50;;;2.22;;
53505;SDS011;39388;50.936;6.848;2022-10-01T17:41:16;6.00;;;2.20;;
53505;SDS011;39388;50.936;6.848;2022-10-01T17:43:47;6.80;;;2.30;;
53505;SDS011;39388;50.936;6.848;2022-10-01T17:46:17;9.00;;;2.70;;
53505;SDS011;39388;50.936;6.848;2022-10-01T17:48:48;8.48;;;2.50;;
53505;SDS011;39388;50.936;6.848;2022-10-01T17:51:18;5.78;;;2.25;;
53505;SDS011;39388;50.936;6.848;2022-10-01T17:53:50;8.07;;;2.53;;
53505;SDS011;39388;50.936;6.848;2022-10-01T17:56:20;9.07;;;2.30;;
53505;SDS011;39388;50.936;6.848;2022-10-01T17:58:51;6.63;;;2.22;;
53505;SDS011;39388;50.936;6.848;2022-10-01T18:01:22;4.88;;;2.30;;
53505;SDS011;39388;50.936;6.848;2022-10-01T18:03:53;6.93;;;2.30;;
53505;SDS011;39388;50.936;6.848;2022-10-01T18:06:29;8.13;;;2.50;;
53505;SDS011;39388;50.936;6.848;2022-10-01T18:09:00;8.15;;;2.65;;
53505;SDS011;39388;50.936;6.848;2022-10-01T18:11:30;5.68;;;2.20;;
53505;SDS011;39388;50.936;6.848;2022-10-01T18:14:01;6.25;;;2.30;;
53505;SDS011;39388;50.936;6.848;2022-10-01T18:16:31;5.55;;;2.05;;
53505;SDS011;39388;50.936;6.848;2022-10-01T18:19:03;6.72;;;2.42;;
53505;SDS011;39388;50.936;6.848;2022-10-01T18:21:35;10.70;;;4.43;;
53505;SDS011;39388;50.936;6.848;2022-10-01T18:24:06;8.57;;;3.58;;